Time;durP1;ratioP1;P1;durP2;ratioP2;P2;SDS_P1;SDS_P2;PMS_P1;PMS_P2;Temp;Humidity;BMP_temperature;BMP_pressure;BME280_temperature;BME280_humidity;BME280_pressure;Samples;Min_cycle;Max_cycle;Signal;HPM_P1;HPM_P2
2022/01/08 00:02:12;;;;;;;10.65;8.52;;;;;;;0.00;86.05;100942.25;5050354;28;20029;-70
2022/01/08 00:04:38;;;;;;;12.45;8.63;;;;;;;-0.06;86.27;100942.94;5015582;28;20074;-70
2022/01/08 00:07:03;;;;;;;20.92;10.13;;;;;;;-0.06;86.48;100952.34;5045190;28;20017;-70
2022/01/08 00:09:30;;;;;;;14.55;8.27;;;;;;;-0.10;86.22;100955.63;5022584;28;20442;-70
2022/01/08 00:11:55;;;;;;;13.30;8.82;;;;;;;-0.15;86.64;100954.63;5033794;28;20025;-70
2022/01/08 00:14:22;;;;;;;12.80;8.27;;;;;;;-0.17;86.35;100967.44;5013245;28;20033;-71
2022/01/08 00:16:48;;;;;;;18.75;9.55;;;;;;;-0.22;86.55;100959.53;5027956;28;20037;-69
2022/01/08 00:19:15;;;;;;;16.83;8.40;;;;;;;-0.26;86.89;100955.13;5032437;28;20041;-71
2022/01/08 00:21:40;;;;;;;16.35;9.73;;;;;;;-0.28;86.76;100966.19;5016409;28;20087;-70
2022/01/08 00:24:06;;;;;;;16.77;9.90;;;;;;;-0.32;86.73;100959.19;5043362;28;20041;-69
2022/01/08 00:26:32;;;;;;;10.68;9.57;;;;;;;-0.36;86.56;100964.25;5042387;28;20022;-70
2022/01/08 00:29:00;;;;;;;14.95;9.35;;;;;;;-0.38;86.56;100962.44;5028442;28;20037;-70
2022/01/08 00:31:26;;;;;;;14.25;10.15;;;;;;;-0.41;86.89;100962.31;5050655;28;20488;-70
2022/01/08 00:33:54;;;;;;;12.45;7.95;;;;;;;-0.46;87.31;100967.31;5015882;28;20493;-70
2022/01/08 00:36:20;;;;;;;13.68;9.27;;;;;;;-0.47;87.19;100969.84;5048057;28;20362;-70
2022/01/08 00:38:46;;;;;;;14.57;10.32;;;;;;;-0.51;87.21;100963.69;5033271;28;20027;-70
2022/01/08 00:41:14;;;;;;;15.43;8.35;;;;;;;-0.55;87.07;100966.97;5033311;28;20025;-70
2022/01/08 00:43:40;;;;;;;13.43;8.32;;;;;;;-0.57;87.11;100978.94;5032821;28;20040;-71
2022/01/08 00:46:07;;;;;;;22.27;9.13;;;;;;;-0.61;87.63;100975.34;5050100;28;20036;-70
2022/01/08 00:48:33;;;;;;;19.08;9.88;;;;;;;-0.65;87.59;100982.91;5031537;28;20404;-70
2022/01/08 00:50:58;;;;;;;18.80;10.55;;;;;;;-0.66;87.47;100991.44;5031580;28;20043;-71
2022/01/08 00:53:24;;;;;;;10.60;8.52;;;;;;;-0.72;87.63;100987.84;5013251;28;20336;-71
2022/01/08 00:55:49;;;;;;;15.50;8.57;;;;;;;-0.75;87.02;100987.75;5038405;28;20369;-70
2022/01/08 00:58:16;;;;;;;13.13;9.10;;;;;;;-0.77;87.62;100994.50;5033357;28;20057;-71
2022/01/08 01:00:42;;;;;;;14.90;9.23;;;;;;;-0.79;87.65;100998.75;5015285;28;20503;-71
2022/01/08 01:03:10;;;;;;;16.45;10.05;;;;;;;-0.79;87.39;100997.84;5048994;28;20108;-71
2022/01/08 01:05:36;;;;;;;15.85;10.27;;;;;;;-0.79;87.54;101003.88;5046403;28;20036;-71
2022/01/08 01:08:02;;;;;;;14.43;9.05;;;;;;;-0.84;87.32;101000.25;5047127;28;20029;-71
2022/01/08 01:10:27;;;;;;;17.90;8.98;;;;;;;-0.85;87.27;101000.19;5031918;28;20048;-70
2022/01/08 01:12:53;;;;;;;18.77;10.70;;;;;;;-0.87;87.50;100993.28;5031735;28;20029;-70
2022/01/08 01:15:19;;;;;;;17.98;11.13;;;;;;;-0.87;87.63;101005.28;5029711;28;20029;-71
2022/01/08 01:17:46;;;;;;;15.43;8.77;;;;;;;-0.86;88.25;100999.34;5031990;28;20477;-71
2022/01/08 01:20:16;;;;;;;15.63;9.10;;;;;;;-0.85;88.48;100997.63;5038979;28;20033;-70
2022/01/08 01:25:15;;;;;;;16.85;9.82;;;;;;;-0.84;88.33;100987.38;5057251;28;20067;-70
2022/01/08 01:49:19;;;;;;;15.60;8.10;;;;;;;-1.06;88.35;101009.75;5062852;28;20051;-71
2022/01/08 01:51:45;;;;;;;19.55;11.35;;;;;;;-1.08;88.37;101008.81;5038390;28;20028;-70
2022/01/08 01:54:11;;;;;;;9.05;8.10;;;;;;;-1.11;88.21;101011.25;5073158;28;20374;-69
2022/01/08 01:56:37;;;;;;;15.90;8.75;;;;;;;-1.13;88.31;101009.47;5054566;28;20051;-70
2022/01/08 01:59:03;;;;;;;16.38;9.52;;;;;;;-1.14;88.23;101006.00;5071216;28;20132;-70
2022/01/08 02:01:29;;;;;;;14.90;10.75;;;;;;;-1.15;88.32;100999.13;5053059;28;20066;-70
2022/01/08 02:03:54;;;;;;;15.15;9.57;;;;;;;-1.13;88.20;101002.59;5054791;28;20052;-70
2022/01/08 02:06:22;;;;;;;15.98;9.55;;;;;;;-1.17;88.43;100994.72;5034009;28;20029;-70
2022/01/08 02:08:48;;;;;;;16.08;9.80;;;;;;;-1.18;88.55;100991.25;5031584;28;20045;-69
2022/01/08 02:11:19;;;;;;;14.50;10.25;;;;;;;-1.17;88.46;100998.16;5019502;28;20037;-70
2022/01/08 02:13:45;;;;;;;18.90;10.48;;;;;;;-1.20;88.44;100995.47;5043343;28;20123;-70
2022/01/08 02:16:16;;;;;;;18.55;10.57;;;;;;;-1.20;88.51;100986.91;5038047;28;20269;-70
2022/01/08 02:18:43;;;;;;;12.45;9.77;;;;;;;-1.25;88.36;100990.16;5031676;28;20033;-69
2022/01/08 02:21:10;;;;;;;16.80;11.35;;;;;;;-1.23;88.60;100997.94;5053463;28;20114;-69
2022/01/08 02:23:35;;;;;;;19.52;11.68;;;;;;;-1.26;88.24;100998.69;5055265;28;20036;-70
2022/01/08 02:26:06;;;;;;;16.60;12.18;;;;;;;-1.28;88.67;100996.88;5054536;28;20051;-70
2022/01/08 02:28:34;;;;;;;20.20;13.10;;;;;;;-1.29;88.90;101005.41;5055292;28;20017;-71
2022/01/08 02:30:59;;;;;;;15.18;11.40;;;;;;;-1.32;88.57;101007.84;5038150;28;20091;-70
2022/01/08 02:33:26;;;;;;;18.05;13.40;;;;;;;-1.30;88.82;100998.50;5055016;28;20032;-70
2022/01/08 02:35:51;;;;;;;24.52;12.35;;;;;;;-1.30;89.44;100999.38;5052500;28;20020;-69
2022/01/08 02:38:17;;;;;;;23.13;15.02;;;;;;;-1.29;89.32;101000.28;5023923;28;20037;-70
2022/01/08 02:40:51;;;;;;;19.70;13.27;;;;;;;-1.27;89.67;101006.34;5038257;28;20036;-70
2022/01/08 02:43:16;;;;;;;21.05;14.65;;;;;;;-1.26;89.92;101010.69;5023842;28;20024;-70
2022/01/08 02:45:42;;;;;;;22.15;13.77;;;;;;;-1.28;89.78;101009.72;5035911;28;20036;-70
2022/01/08 02:48:09;;;;;;;29.88;13.48;;;;;;;-1.28;89.90;101009.72;5009830;28;20040;-70
2022/01/08 02:50:34;;;;;;;24.05;15.40;;;;;;;-1.30;89.59;101017.38;5047488;28;20473;-70
2022/01/08 02:53:00;;;;;;;25.48;14.45;;;;;;;-1.28;89.97;101014.88;5071822;28;20035;-71
2022/01/08 02:55:25;;;;;;;18.27;13.38;;;;;;;-1.30;89.26;101014.81;5054055;28;20103;-70
2022/01/08 02:57:51;;;;;;;15.65;12.15;;;;;;;-1.31;89.69;101007.91;5021276;28;20033;-70
2022/01/08 03:00:18;;;;;;;17.63;14.20;;;;;;;-1.30;89.86;101014.81;5036321;28;20064;-70
2022/01/08 03:02:47;;;;;;;23.27;14.70;;;;;;;-1.28;89.83;101013.19;5054736;28;20024;-70
2022/01/08 03:05:13;;;;;;;25.88;15.02;;;;;;;-1.23;90.01;101021.06;5053392;28;20027;-70
2022/01/08 03:07:41;;;;;;;26.10;15.82;;;;;;;-1.24;90.29;101015.03;5051423;28;20403;-70
2022/01/08 03:10:08;;;;;;;27.55;15.48;;;;;;;-1.22;90.40;101012.56;5053485;28;20036;-70
2022/01/08 03:12:33;;;;;;;22.05;14.63;;;;;;;-1.19;90.12;101016.91;5053821;28;20035;-70
2022/01/08 03:14:59;;;;;;;23.75;13.70;;;;;;;-1.20;90.42;101015.19;5053513;28;20032;-73
2022/01/08 03:17:25;;;;;;;23.77;13.85;;;;;;;-1.21;90.05;101011.72;5021578;28;20048;-70
2022/01/08 03:19:52;;;;;;;26.55;14.82;;;;;;;-1.22;89.94;101007.41;5035327;28;20036;-71
2022/01/08 03:22:19;;;;;;;28.20;14.73;;;;;;;-1.21;90.60;101004.00;5036023;28;20036;-71
2022/01/08 03:24:44;;;;;;;18.70;13.35;;;;;;;-1.21;90.70;101009.13;5050292;28;20069;-70
2022/01/08 03:27:10;;;;;;;33.53;16.70;;;;;;;-1.20;90.50;101015.19;5052691;28;20496;-71
2022/01/08 03:29:36;;;;;;;20.83;15.18;;;;;;;-1.20;90.66;101017.75;5053877;28;20457;-70
2022/01/08 03:32:01;;;;;;;20.55;13.77;;;;;;;-1.22;90.18;101022.84;5020516;28;20048;-70
2022/01/08 03:34:27;;;;;;;22.55;14.82;;;;;;;-1.25;90.55;101017.53;5038114;28;20020;-70
2022/01/08 03:36:52;;;;;;;46.38;15.00;;;;;;;-1.23;90.34;101016.78;5036874;28;20052;-71
2022/01/08 03:39:18;;;;;;;21.60;13.05;;;;;;;-1.22;90.33;101017.69;5052728;28;20036;-70
2022/01/08 03:41:45;;;;;;;26.48;13.07;;;;;;;-1.23;90.08;101015.94;5052391;28;20089;-70
2022/01/08 03:44:13;;;;;;;24.48;13.80;;;;;;;-1.22;90.71;101022.84;5024570;28;20035;-71
2022/01/08 03:46:42;;;;;;;22.52;13.23;;;;;;;-1.23;90.20;101027.09;5019342;28;20123;-70
2022/01/08 03:51:33;;;;;;;23.73;12.50;;;;;;;-1.25;90.38;101018.44;5047360;28;20116;-69
2022/01/08 03:53:59;;;;;;;16.75;12.52;;;;;;;-1.26;90.51;101026.09;5050086;28;20051;-71
2022/01/08 03:56:26;;;;;;;29.25;13.32;;;;;;;-1.29;90.30;101020.84;5019944;28;20112;-68
2022/01/08 03:58:51;;;;;;;25.50;14.30;;;;;;;-1.30;90.20;101022.53;5052487;28;20029;-69
2022/01/08 04:01:17;;;;;;;25.08;12.93;;;;;;;-1.29;90.20;101031.13;5034689;28;20044;-70
2022/01/08 04:03:42;;;;;;;19.35;11.77;;;;;;;-1.27;89.92;101025.19;5052820;28;20037;-69
2022/01/08 04:06:08;;;;;;;18.67;11.27;;;;;;;-1.29;90.19;101015.69;5035647;28;20636;-70
2022/01/08 04:08:34;;;;;;;24.50;12.65;;;;;;;-1.28;90.44;101022.56;5052786;28;20107;-69
2022/01/08 04:11:00;;;;;;;15.95;11.20;;;;;;;-1.28;90.53;101027.72;5051727;28;20017;-69
2022/01/08 04:13:29;;;;;;;26.33;12.35;;;;;;;-1.30;90.69;101035.38;5053097;28;20020;-70
2022/01/08 04:16:00;;;;;;;24.17;13.73;;;;;;;-1.31;90.45;101025.03;5052345;28;20031;-71
2022/01/08 04:18:25;;;;;;;18.10;11.70;;;;;;;-1.31;90.35;101040.47;5047912;28;20495;-69
2022/01/08 04:23:22;;;;;;;16.38;11.52;;;;;;;-1.35;90.03;101041.16;5032328;28;20040;-70
2022/01/08 04:25:49;;;;;;;30.27;12.43;;;;;;;-1.35;90.55;101041.16;5000774;28;20052;-70
2022/01/08 04:28:15;;;;;;;19.83;11.95;;;;;;;-1.36;90.61;101042.00;5029157;28;20068;-70
2022/01/08 04:30:41;;;;;;;21.17;12.02;;;;;;;-1.37;90.44;101047.94;5030133;28;20036;-69
2022/01/08 04:33:07;;;;;;;20.35;12.70;;;;;;;-1.39;90.43;101042.72;5023715;28;20232;-69
2022/01/08 04:35:32;;;;;;;27.58;12.82;;;;;;;-1.40;90.22;101049.56;5012521;28;20030;-70
2022/01/08 04:37:57;;;;;;;28.10;11.68;;;;;;;-1.43;90.57;101052.00;4996387;28;20045;-69
2022/01/08 04:40:23;;;;;;;15.82;11.93;;;;;;;-1.43;90.15;101052.00;5005938;28;20180;-70
2022/01/08 04:42:48;;;;;;;21.85;11.55;;;;;;;-1.42;90.17;101060.63;4992398;28;20052;-71
2022/01/08 04:45:14;;;;;;;17.90;11.32;;;;;;;-1.45;90.11;101061.34;5011178;28;20034;-71
2022/01/08 04:47:41;;;;;;;20.65;10.88;;;;;;;-1.44;90.73;101067.38;4993037;28;20033;-70
2022/01/08 04:50:07;;;;;;;19.85;12.25;;;;;;;-1.41;90.98;101068.38;4993028;28;20106;-70
2022/01/08 04:52:32;;;;;;;19.02;12.30;;;;;;;-1.40;90.65;101062.41;4993264;28;20485;-72
2022/01/08 04:54:58;;;;;;;24.33;13.27;;;;;;;-1.41;90.92;101058.09;4995737;28;20044;-71
2022/01/08 04:57:24;;;;;;;26.00;12.63;;;;;;;-1.39;90.79;101060.72;5006031;28;20034;-71
2022/01/08 04:59:50;;;;;;;25.77;13.80;;;;;;;-1.42;91.00;101061.47;5010587;28;20042;-72
2022/01/08 05:02:15;;;;;;;16.38;10.50;;;;;;;-1.42;91.15;101069.19;5025959;28;20032;-72
2022/01/08 05:04:41;;;;;;;17.20;11.82;;;;;;;-1.44;90.95;101070.84;5002986;28;20030;-72
2022/01/08 05:07:06;;;;;;;16.95;11.65;;;;;;;-1.42;90.68;101074.34;5012174;28;20025;-72
2022/01/08 05:09:38;;;;;;;18.63;10.75;;;;;;;-1.43;90.93;101080.28;5029467;28;20044;-72
2022/01/08 05:12:04;;;;;;;13.82;10.98;;;;;;;-1.43;90.89;101066.56;5023091;28;20037;-72
2022/01/08 05:14:30;;;;;;;16.23;11.95;;;;;;;-1.42;91.17;101074.34;5028336;28;20044;-71
2022/01/08 05:16:59;;;;;;;22.70;13.25;;;;;;;-1.40;91.25;101072.69;4993045;28;20045;-72
2022/01/08 05:19:37;;;;;;;21.23;11.70;;;;;;;-1.41;91.51;101070.94;4989650;28;20657;-72
2022/01/08 05:22:05;;;;;;;24.45;12.45;;;;;;;-1.42;90.95;101078.59;5013833;28;20427;-72
2022/01/08 05:24:33;;;;;;;22.00;13.05;;;;;;;-1.41;90.91;101075.19;5037875;28;20116;-71
2022/01/08 05:26:58;;;;;;;26.38;11.63;;;;;;;-1.41;91.40;101072.63;5052284;28;20549;-72
2022/01/08 05:29:24;;;;;;;27.00;12.77;;;;;;;-1.41;91.35;101068.38;5032347;28;20037;-72
2022/01/08 05:31:49;;;;;;;18.52;11.32;;;;;;;-1.41;91.14;101072.63;5035917;28;20473;-72
2022/01/08 05:34:15;;;;;;;20.48;12.52;;;;;;;-1.38;91.44;101074.44;5031328;28;20485;-71
2022/01/08 05:36:40;;;;;;;17.70;11.15;;;;;;;-1.36;91.59;101078.84;5055820;28;20028;-71
2022/01/08 05:39:06;;;;;;;15.13;13.43;;;;;;;-1.36;91.31;101075.41;5053794;28;20036;-71
2022/01/08 05:41:32;;;;;;;16.80;12.30;;;;;;;-1.36;91.37;101072.84;5036115;28;20056;-71
2022/01/08 05:43:57;;;;;;;17.10;12.18;;;;;;;-1.36;91.82;101077.97;5036540;28;20044;-71
2022/01/08 05:46:23;;;;;;;20.13;12.52;;;;;;;-1.31;91.59;101074.75;5053937;28;20040;-71
2022/01/08 05:48:49;;;;;;;19.30;11.52;;;;;;;-1.32;91.68;101070.44;5047284;28;20035;-71
2022/01/08 05:51:14;;;;;;;16.40;11.30;;;;;;;-1.29;91.63;101077.41;5051321;28;20033;-71
2022/01/08 05:53:40;;;;;;;15.80;12.45;;;;;;;-1.31;91.59;101079.88;5052082;28;20054;-72
2022/01/08 05:56:05;;;;;;;16.60;11.15;;;;;;;-1.25;91.97;101079.25;5018308;28;20035;-70
2022/01/08 05:58:32;;;;;;;14.35;10.43;;;;;;;-1.23;91.44;101082.78;5051582;28;20025;-71
2022/01/08 06:00:57;;;;;;;13.77;10.70;;;;;;;-1.21;92.28;101083.72;5034706;28;20424;-71
2022/01/08 06:03:23;;;;;;;19.27;11.70;;;;;;;-1.20;92.02;101082.03;5033961;28;20025;-71
2022/01/08 06:05:48;;;;;;;20.55;10.48;;;;;;;-1.19;92.06;101099.19;5033314;28;20104;-71
2022/01/08 06:08:14;;;;;;;22.92;10.48;;;;;;;-1.22;92.07;101108.56;5034388;28;20021;-71
2022/01/08 06:10:39;;;;;;;17.55;10.90;;;;;;;-1.20;92.00;101098.34;5017318;28;20111;-70
2022/01/08 06:13:05;;;;;;;23.20;11.43;;;;;;;-1.18;91.70;101111.25;5035010;28;20037;-70
2022/01/08 06:15:30;;;;;;;12.85;10.18;;;;;;;-1.17;91.65;101124.16;5017279;28;20116;-70
2022/01/08 06:17:55;;;;;;;17.45;11.27;;;;;;;-1.19;91.54;101125.81;5018292;28;20555;-70
2022/01/08 06:20:21;;;;;;;14.48;9.20;;;;;;;-1.22;91.24;101116.28;5032870;28;20104;-70
2022/01/08 06:22:46;;;;;;;13.93;9.73;;;;;;;-1.21;91.63;101117.16;5018333;28;20106;-70
2022/01/08 06:25:12;;;;;;;19.73;11.07;;;;;;;-1.20;91.84;101113.75;5050073;28;20462;-69
2022/01/08 06:27:37;;;;;;;18.30;11.55;;;;;;;-1.17;91.61;101111.31;5033581;28;20051;-69
2022/01/08 06:30:06;;;;;;;19.67;10.80;;;;;;;-1.16;91.65;101112.22;5017187;28;20170;-70
2022/01/08 06:32:31;;;;;;;20.10;10.93;;;;;;;-1.14;91.71;101116.56;5050682;28;20388;-70
2022/01/08 06:34:57;;;;;;;16.95;11.15;;;;;;;-1.12;91.85;101107.25;5017254;28;20037;-70
2022/01/08 06:37:22;;;;;;;22.70;12.10;;;;;;;-1.09;91.62;101115.09;5033428;28;20033;-70
2022/01/08 06:39:49;;;;;;;19.02;9.95;;;;;;;-1.07;91.44;101120.28;5014016;28;20049;-69
2022/01/08 06:42:17;;;;;;;15.63;10.80;;;;;;;-1.08;92.06;101103.97;5025536;28;20039;-71
2022/01/08 06:44:42;;;;;;;21.15;12.30;;;;;;;-1.04;91.72;101097.25;5028179;28;20029;-70
2022/01/08 06:47:08;;;;;;;15.75;10.73;;;;;;;-1.01;91.74;101099.06;5014203;28;20456;-71
2022/01/08 06:49:34;;;;;;;19.63;12.60;;;;;;;-0.99;92.20;101102.56;5032358;28;20037;-70
2022/01/08 06:52:00;;;;;;;19.45;11.13;;;;;;;-0.98;91.84;101100.06;5015264;28;20066;-70
2022/01/08 06:54:25;;;;;;;15.10;11.05;;;;;;;-0.94;92.14;101093.34;5028007;28;20026;-70
2022/01/08 06:56:51;;;;;;;35.58;12.70;;;;;;;-0.94;92.32;101091.66;5022467;28;20562;-71
2022/01/08 06:59:16;;;;;;;10.98;9.93;;;;;;;-0.93;91.99;101089.97;5017420;28;20121;-70
2022/01/08 07:01:41;;;;;;;17.75;11.48;;;;;;;-0.93;91.55;101089.97;5013646;28;20121;-71
2022/01/08 07:04:07;;;;;;;21.02;11.43;;;;;;;-0.97;92.03;101093.22;5032728;28;20452;-71
2022/01/08 07:06:32;;;;;;;11.02;9.48;;;;;;;-0.97;91.44;101093.22;5026496;28;20362;-70
2022/01/08 07:08:58;;;;;;;17.33;10.77;;;;;;;-0.98;91.50;101094.91;5016009;28;20109;-70
2022/01/08 07:11:23;;;;;;;13.60;11.02;;;;;;;-0.98;91.19;101100.06;5016339;28;20040;-71
2022/01/08 07:13:49;;;;;;;14.63;9.80;;;;;;;-1.01;91.33;101097.38;5033997;28;20021;-70
2022/01/08 07:16:14;;;;;;;19.13;10.35;;;;;;;-1.02;91.52;101097.31;5033374;28;20402;-71
2022/01/08 07:18:40;;;;;;;19.35;10.82;;;;;;;-1.02;91.39;101095.63;5031680;28;20037;-70
2022/01/08 07:21:06;;;;;;;20.92;9.90;;;;;;;-1.03;91.74;101103.25;5033103;28;20449;-71
2022/01/08 07:23:32;;;;;;;16.00;10.40;;;;;;;-1.06;91.82;101099.75;5024574;28;20029;-71
2022/01/08 07:25:57;;;;;;;19.05;11.70;;;;;;;-1.07;91.69;101095.44;5047092;28;20080;-70
2022/01/08 07:28:24;;;;;;;13.55;10.63;;;;;;;-1.06;91.33;101096.31;5049336;28;20041;-72
2022/01/08 07:30:49;;;;;;;14.77;11.10;;;;;;;-1.08;91.20;101100.50;5022195;28;20025;-71
2022/01/08 07:33:15;;;;;;;14.75;9.38;;;;;;;-1.09;91.46;101091.94;5004257;28;20099;-70
2022/01/08 07:35:41;;;;;;;18.38;10.73;;;;;;;-1.03;91.70;101090.41;5025895;28;20032;-70
2022/01/08 07:38:06;;;;;;;34.58;16.27;;;;;;;-1.02;91.91;101092.16;5016560;28;20044;-71
2022/01/08 07:40:32;;;;;;;24.30;12.57;;;;;;;-1.00;92.01;101101.69;5032662;28;20044;-70
2022/01/08 07:42:58;;;;;;;22.10;12.73;;;;;;;-0.98;91.81;101099.19;5025356;28;20041;-71
2022/01/08 07:45:23;;;;;;;14.95;10.77;;;;;;;-0.93;92.08;101097.69;5042770;28;20029;-71
2022/01/08 07:47:49;;;;;;;15.60;10.60;;;;;;;-0.92;92.00;101102.00;5032906;28;20033;-71
2022/01/08 07:50:15;;;;;;;22.45;12.90;;;;;;;-0.87;92.03;101101.34;5045529;28;20075;-71
2022/01/08 07:52:42;;;;;;;19.77;12.50;;;;;;;-0.82;92.13;101096.41;5018341;28;20538;-71
2022/01/08 07:55:09;;;;;;;23.70;12.25;;;;;;;-0.77;92.32;101088.88;5027855;28;20068;-71
2022/01/08 07:57:34;;;;;;;30.75;11.77;;;;;;;-0.72;92.16;101083.06;5045583;28;20127;-71
2022/01/08 08:00:00;;;;;;;25.10;12.73;;;;;;;-0.68;92.00;101078.91;5050991;28;20043;-71
2022/01/08 08:02:25;;;;;;;24.15;11.15;;;;;;;-0.65;92.17;101080.72;5012250;28;20037;-72
2022/01/08 08:04:51;;;;;;;27.30;13.55;;;;;;;-0.61;91.84;101083.47;5061605;28;20067;-71
2022/01/08 08:07:31;;;;;;;22.63;11.63;;;;;;;-0.59;91.57;101078.38;5054957;28;20029;-71
2022/01/08 08:09:56;;;;;;;19.98;11.15;;;;;;;-0.60;91.56;101082.66;5048984;28;20079;-71
2022/01/08 08:12:23;;;;;;;15.30;10.90;;;;;;;-0.56;91.83;101073.34;5028871;28;20061;-71
2022/01/08 08:14:48;;;;;;;23.23;11.65;;;;;;;-0.55;91.32;101081.13;5053773;28;20048;-71
2022/01/08 08:17:14;;;;;;;17.67;8.95;;;;;;;-0.51;91.72;101082.13;5048926;28;20500;-71
2022/01/08 08:19:39;;;;;;;22.40;10.23;;;;;;;-0.50;91.76;101071.00;5015894;28;20041;-71
2022/01/08 08:22:05;;;;;;;18.38;9.25;;;;;;;-0.48;91.68;101076.22;5015693;28;20033;-71
2022/01/08 08:24:30;;;;;;;16.95;10.43;;;;;;;-0.49;91.44;101075.31;5034441;28;20044;-71
2022/01/08 08:26:55;;;;;;;13.70;10.77;;;;;;;-0.48;91.58;101076.22;5017639;28;20043;-70
2022/01/08 08:29:21;;;;;;;21.33;10.15;;;;;;;-0.47;91.39;101075.41;5018456;28;20114;-71
2022/01/08 08:31:46;;;;;;;22.17;12.07;;;;;;;-0.47;91.88;101063.41;5019185;28;20028;-71
2022/01/08 08:34:12;;;;;;;20.80;10.55;;;;;;;-0.48;91.54;101071.94;5017377;28;20028;-71
2022/01/08 08:36:37;;;;;;;20.02;11.55;;;;;;;-0.46;91.77;101067.72;5017090;28;20116;-70
2022/01/08 08:39:03;;;;;;;21.65;11.70;;;;;;;-0.45;91.90;101063.44;5051094;28;20029;-70
2022/01/08 08:41:30;;;;;;;20.13;11.27;;;;;;;-0.43;92.12;101059.22;5017752;28;20029;-70
2022/01/08 08:43:55;;;;;;;20.77;12.32;;;;;;;-0.41;92.11;101053.31;5051762;28;20336;-70
2022/01/08 08:46:21;;;;;;;19.67;10.13;;;;;;;-0.41;92.02;101058.47;5014142;28;20029;-70
2022/01/08 08:48:46;;;;;;;17.90;10.90;;;;;;;-0.37;92.59;101056.88;5017932;28;20035;-70
2022/01/08 08:51:12;;;;;;;17.58;10.75;;;;;;;-0.35;92.09;101050.94;5018392;28;20036;-70
2022/01/08 08:53:38;;;;;;;16.98;10.88;;;;;;;-0.33;91.89;101047.56;5018590;28;20492;-70
2022/01/08 08:56:04;;;;;;;15.98;11.57;;;;;;;-0.29;92.15;101052.88;5034509;28;20032;-70
2022/01/08 08:58:30;;;;;;;20.58;12.85;;;;;;;-0.27;92.20;101060.69;5018111;28;20124;-70
2022/01/08 09:00:55;;;;;;;29.92;13.18;;;;;;;-0.23;91.85;101053.09;5038251;28;20123;-70
2022/01/08 09:03:21;;;;;;;21.88;13.05;;;;;;;-0.21;91.60;101055.72;5021110;28;20020;-71
2022/01/08 09:05:47;;;;;;;19.73;13.25;;;;;;;-0.18;92.31;101050.69;5021656;28;20129;-71
2022/01/08 09:08:13;;;;;;;32.28;13.25;;;;;;;-0.15;92.06;101052.50;5027232;28;20127;-70
2022/01/08 09:10:38;;;;;;;27.52;15.00;;;;;;;-0.12;92.40;101058.63;5017834;28;20037;-70
2022/01/08 09:13:04;;;;;;;17.73;12.00;;;;;;;-0.09;91.95;101056.16;5038416;28;20093;-71
2022/01/08 09:15:29;;;;;;;31.20;12.68;;;;;;;-0.03;91.89;101051.22;5025545;28;20037;-70
2022/01/08 09:17:58;;;;;;;27.95;15.45;;;;;;;0.02;91.62;101050.53;5032398;28;20178;-70
2022/01/08 09:20:27;;;;;;;31.02;13.80;;;;;;;0.06;91.51;101044.63;5051609;28;20119;-70
2022/01/08 09:22:52;;;;;;;26.85;15.35;;;;;;;0.09;91.57;101049.91;5054682;28;20136;-71
2022/01/08 09:25:18;;;;;;;28.35;15.07;;;;;;;0.12;91.72;101042.28;4993355;28;1507079;-71
2022/01/08 09:27:45;;;;;;;27.05;14.93;;;;;;;0.15;91.42;101042.38;5045078;28;20042;-70
2022/01/08 09:30:11;;;;;;;27.52;16.50;;;;;;;0.20;91.29;101047.69;5022327;28;20062;-71
2022/01/08 09:32:37;;;;;;;29.77;16.58;;;;;;;0.21;91.25;101042.56;5038972;28;20337;-71
2022/01/08 09:35:04;;;;;;;34.60;17.23;;;;;;;0.24;91.58;101044.38;5054879;28;20081;-71
2022/01/08 09:37:29;;;;;;;28.73;18.50;;;;;;;0.26;91.37;101038.47;5038595;28;20039;-71
2022/01/08 09:39:55;;;;;;;35.28;18.15;;;;;;;0.29;91.16;101029.97;5056071;28;20036;-71
2022/01/08 09:42:20;;;;;;;28.05;15.65;;;;;;;0.31;91.25;101029.16;5055948;28;20467;-71
2022/01/08 09:44:46;;;;;;;27.60;17.35;;;;;;;0.37;90.78;101025.03;5039567;28;20032;-71
2022/01/08 09:47:14;;;;;;;32.53;19.10;;;;;;;0.40;91.01;101026.00;5038456;28;20389;-71
2022/01/08 09:49:40;;;;;;;28.80;19.10;;;;;;;0.49;91.04;101020.31;5037991;28;20071;-70
2022/01/08 09:52:09;;;;;;;29.25;14.73;;;;;;;0.54;90.78;101007.53;5038472;28;20388;-70
2022/01/08 09:54:35;;;;;;;24.67;17.38;;;;;;;0.64;90.35;101002.72;5052359;28;20017;-70
2022/01/08 09:57:01;;;;;;;28.38;15.75;;;;;;;0.73;90.11;101003.84;5055566;28;20020;-71
2022/01/08 09:59:28;;;;;;;26.23;17.00;;;;;;;0.76;90.00;100994.50;5035483;28;20028;-71
2022/01/08 10:01:58;;;;;;;24.40;15.82;;;;;;;0.79;89.58;100991.13;5033662;28;20044;-71
2022/01/08 10:04:29;;;;;;;31.92;20.23;;;;;;;0.80;89.73;100972.25;5050378;28;20028;-71
2022/01/08 10:07:13;;;;;;;32.58;18.15;;;;;;;0.82;89.78;100973.16;5053054;28;20024;-70
2022/01/08 10:09:57;;;;;;;38.97;18.52;;;;;;;0.82;89.76;100962.81;5054654;28;20361;-70
2022/01/08 10:12:39;;;;;;;32.53;17.75;;;;;;;0.85;89.75;100956.06;5053687;28;20040;-70
2022/01/08 10:17:51;;;;;;;38.05;21.25;;;;;;;0.86;89.46;100951.78;5054786;28;20097;-69
2022/01/08 10:20:35;;;;;;;30.08;17.83;;;;;;;0.86;89.34;100933.72;5054277;28;20028;-71
2022/01/08 10:23:23;;;;;;;48.38;21.25;;;;;;;0.88;89.85;100921.75;5071926;28;20099;-71
2022/01/08 10:26:03;;;;;;;40.28;20.42;;;;;;;0.92;89.78;100918.44;5049842;28;20182;-70
2022/01/08 10:28:47;;;;;;;54.17;18.80;;;;;;;0.97;89.40;100905.66;5051743;28;20024;-71
2022/01/08 10:31:23;;;;;;;30.95;17.45;;;;;;;1.04;89.41;100898.13;5053631;28;20044;-71
2022/01/08 10:33:53;;;;;;;39.53;22.27;;;;;;;1.08;89.25;100891.34;5053706;28;20104;-71
2022/01/08 10:36:24;;;;;;;34.40;21.27;;;;;;;1.10;88.90;100881.94;5050069;28;20043;-71
2022/01/08 10:38:53;;;;;;;29.95;17.38;;;;;;;1.13;89.48;100881.16;5052119;28;20021;-71
2022/01/08 10:41:19;;;;;;;30.27;18.00;;;;;;;1.19;88.70;100873.56;5038776;28;20032;-70
2022/01/08 10:43:47;;;;;;;31.33;18.58;;;;;;;1.21;88.74;100874.50;5026866;28;20034;-70
2022/01/08 10:46:18;;;;;;;27.92;17.48;;;;;;;1.23;88.70;100877.97;5037187;28;20039;-71
2022/01/08 10:48:49;;;;;;;43.20;21.33;;;;;;;1.24;89.00;100861.66;5053303;28;20384;-70
2022/01/08 10:51:16;;;;;;;;;;;;;;;1.32;88.10;100861.84;5054056;28;20116;-71
2022/01/08 10:54:08;;;;;;;32.42;19.33;;;;;;;1.30;88.40;100853.22;5054065;28;20335;-70
2022/01/08 10:56:35;;;;;;;22.20;15.05;;;;;;;1.31;88.22;100852.38;5054354;28;20020;-70
2022/01/08 10:59:10;;;;;;;36.05;19.90;;;;;;;1.39;88.30;100830.19;5052370;28;20032;-70
2022/01/08 11:01:40;;;;;;;35.70;19.80;;;;;;;1.41;88.42;100835.38;5052825;28;20485;-71
2022/01/08 11:04:08;;;;;;;27.17;14.93;;;;;;;1.48;88.08;100826.97;5053473;28;20119;-71
2022/01/08 11:06:34;;;;;;;32.10;17.48;;;;;;;1.51;87.43;100821.91;5053518;28;20047;-70
2022/01/08 11:09:02;;;;;;;29.63;14.63;;;;;;;1.54;87.58;100806.47;5019979;28;20484;-71
2022/01/08 11:11:30;;;;;;;25.30;15.25;;;;;;;1.61;86.77;100802.31;5020113;28;20101;-71
2022/01/08 11:14:07;;;;;;;27.50;16.05;;;;;;;1.64;87.35;100792.03;5052597;28;20060;-69
2022/01/08 11:16:34;;;;;;;25.58;15.00;;;;;;;1.69;86.96;100793.91;5037454;28;20047;-70
2022/01/08 11:19:03;;;;;;;24.55;15.35;;;;;;;1.72;86.93;100788.84;5034462;28;20044;-70
2022/01/08 11:21:33;;;;;;;26.15;14.63;;;;;;;1.76;87.20;100791.50;5045762;28;20097;-71
2022/01/08 11:24:00;;;;;;;23.75;15.02;;;;;;;1.78;86.54;100775.19;5053209;28;20107;-71
2022/01/08 11:26:27;;;;;;;25.38;15.23;;;;;;;1.85;87.23;100776.19;5032893;28;20126;-70
2022/01/08 11:28:58;;;;;;;34.83;16.73;;;;;;;1.89;86.34;100772.84;5042698;28;20024;-71
2022/01/08 11:31:28;;;;;;;26.88;16.45;;;;;;;1.90;86.57;100762.53;5047831;28;20388;-71
2022/01/08 11:33:59;;;;;;;28.23;16.23;;;;;;;1.92;86.18;100748.78;5052710;28;20039;-71
2022/01/08 11:36:25;;;;;;;28.45;14.93;;;;;;;1.93;86.19;100748.81;5052387;28;20033;-70
2022/01/08 11:38:55;;;;;;;26.88;15.00;;;;;;;1.98;86.66;100747.19;5053781;28;20051;-70
2022/01/08 11:41:20;;;;;;;23.80;14.23;;;;;;;1.99;85.16;100735.16;5050959;28;20465;-70
2022/01/08 11:43:50;;;;;;;30.23;14.07;;;;;;;2.02;84.97;100733.50;5036029;28;20103;-70